sensor_id;sensor_type;location;lat;lon;timestamp;temperature;humidity
42085;DHT22;27746;52.228;20.890;2023-03-04T00:00:20;0.80;99.90
42085;DHT22;27746;52.228;20.890;2023-03-04T00:05:14;0.80;99.90
42085;DHT22;27746;52.228;20.890;2023-03-04T00:10:10;0.80;99.90
42085;DHT22;27746;52.228;20.890;2023-03-04T00:12:37;0.80;99.90
42085;DHT22;27746;52.228;20.890;2023-03-04T00:15:04;0.80;99.90
42085;DHT22;27746;52.228;20.890;2023-03-04T00:17:33;0.80;99.90
42085;DHT22;27746;52.228;20.890;2023-03-04T00:47:02;0.80;99.90
42085;DHT22;27746;52.228;20.890;2023-03-04T00:49:29;0.90;99.90
42085;DHT22;27746;52.228;20.890;2023-03-04T00:51:59;1.00;99.90
42085;DHT22;27746;52.228;20.890;2023-03-04T00:54:26;0.90;99.90
42085;DHT22;27746;52.228;20.890;2023-03-04T00:56:53;0.90;99.90
42085;DHT22;27746;52.228;20.890;2023-03-04T00:59:20;0.90;99.90
42085;DHT22;27746;52.228;20.890;2023-03-04T01:01:47;0.90;99.90
42085;DHT22;27746;52.228;20.890;2023-03-04T01:04:14;0.90;99.90
42085;DHT22;27746;52.228;20.890;2023-03-04T01:06:41;0.90;99.90
42085;DHT22;27746;52.228;20.890;2023-03-04T01:09:09;0.90;99.90
42085;DHT22;27746;52.228;20.890;2023-03-04T01:11:36;0.90;99.90
42085;DHT22;27746;52.228;20.890;2023-03-04T01:14:03;0.90;99.90
42085;DHT22;27746;52.228;20.890;2023-03-04T01:16:30;0.90;99.90
42085;DHT22;27746;52.228;20.890;2023-03-04T01:21:27;0.90;99.90
42085;DHT22;27746;52.228;20.890;2023-03-04T01:23:54;0.90;99.90
42085;DHT22;27746;52.228;20.890;2023-03-04T01:26:22;0.90;99.90
42085;DHT22;27746;52.228;20.890;2023-03-04T01:28:49;0.90;99.90
42085;DHT22;27746;52.228;20.890;2023-03-04T01:31:16;0.90;99.90
42085;DHT22;27746;52.228;20.890;2023-03-04T01:33:43;0.90;99.90
42085;DHT22;27746;52.228;20.890;2023-03-04T01:38:37;0.80;99.90
42085;DHT22;27746;52.228;20.890;2023-03-04T01:41:04;0.80;99.90
42085;DHT22;27746;52.228;20.890;2023-03-04T01:43:35;0.80;99.90
42085;DHT22;27746;52.228;20.890;2023-03-04T01:46:02;0.80;99.90
42085;DHT22;27746;52.228;20.890;2023-03-04T01:51:01;0.80;99.90
42085;DHT22;27746;52.228;20.890;2023-03-04T01:53:29;0.80;99.90
42085;DHT22;27746;52.228;20.890;2023-03-04T01:55:58;0.80;99.90
42085;DHT22;27746;52.228;20.890;2023-03-04T02:00:57;0.80;99.90
42085;DHT22;27746;52.228;20.890;2023-03-04T02:05:52;0.70;99.90
42085;DHT22;27746;52.228;20.890;2023-03-04T02:08:21;0.70;99.90
42085;DHT22;27746;52.228;20.890;2023-03-04T02:10:51;0.70;99.90
42085;DHT22;27746;52.228;20.890;2023-03-04T02:15:46;0.70;99.90
42085;DHT22;27746;52.228;20.890;2023-03-04T02:18:16;0.70;99.90
42085;DHT22;27746;52.228;20.890;2023-03-04T02:20:50;0.60;99.90
42085;DHT22;27746;52.228;20.890;2023-03-04T02:23:21;0.70;99.90
42085;DHT22;27746;52.228;20.890;2023-03-04T02:26:02;0.70;99.90
42085;DHT22;27746;52.228;20.890;2023-03-04T02:28:29;0.70;99.90
42085;DHT22;27746;52.228;20.890;2023-03-04T03:00:31;0.70;99.90
42085;DHT22;27746;52.228;20.890;2023-03-04T03:02:58;0.90;99.90
42085;DHT22;27746;52.228;20.890;2023-03-04T03:10:20;0.90;99.90
42085;DHT22;27746;52.228;20.890;2023-03-04T03:12:47;1.00;99.90
42085;DHT22;27746;52.228;20.890;2023-03-04T03:15:14;1.00;99.90
42085;DHT22;27746;52.228;20.890;2023-03-04T03:22:38;1.10;99.90
42085;DHT22;27746;52.228;20.890;2023-03-04T03:25:06;1.10;99.90
42085;DHT22;27746;52.228;20.890;2023-03-04T03:27:33;1.10;99.90
42085;DHT22;27746;52.228;20.890;2023-03-04T03:30:00;1.10;99.90
42085;DHT22;27746;52.228;20.890;2023-03-04T03:32:27;1.10;99.90
42085;DHT22;27746;52.228;20.890;2023-03-04T03:34:55;1.10;99.90
42085;DHT22;27746;52.228;20.890;2023-03-04T03:37:22;1.20;99.90
42085;DHT22;27746;52.228;20.890;2023-03-04T03:39:49;1.20;99.90
42085;DHT22;27746;52.228;20.890;2023-03-04T03:47:10;1.20;99.90
42085;DHT22;27746;52.228;20.890;2023-03-04T03:52:06;1.30;99.90
42085;DHT22;27746;52.228;20.890;2023-03-04T03:54:34;1.30;99.90
42085;DHT22;27746;52.228;20.890;2023-03-04T03:57:01;1.30;99.90
42085;DHT22;27746;52.228;20.890;2023-03-04T03:59:28;1.30;99.90
42085;DHT22;27746;52.228;20.890;2023-03-04T04:01:55;1.40;99.90
42085;DHT22;27746;52.228;20.890;2023-03-04T04:04:22;1.40;99.90
42085;DHT22;27746;52.228;20.890;2023-03-04T04:09:17;1.40;99.90
42085;DHT22;27746;52.228;20.890;2023-03-04T04:14:12;1.40;99.90
42085;DHT22;27746;52.228;20.890;2023-03-04T04:16:40;1.40;99.90
42085;DHT22;27746;52.228;20.890;2023-03-04T04:19:07;1.50;99.90
42085;DHT22;27746;52.228;20.890;2023-03-04T04:28:56;1.50;99.90
42085;DHT22;27746;52.228;20.890;2023-03-04T04:38:45;1.50;99.90
42085;DHT22;27746;52.228;20.890;2023-03-04T04:46:14;1.60;99.90
42085;DHT22;27746;52.228;20.890;2023-03-04T04:48:41;1.60;99.90
42085;DHT22;27746;52.228;20.890;2023-03-04T04:51:08;1.60;99.90
42085;DHT22;27746;52.228;20.890;2023-03-04T04:58:35;1.70;99.90
42085;DHT22;27746;52.228;20.890;2023-03-04T05:01:04;1.70;99.90
42085;DHT22;27746;52.228;20.890;2023-03-04T05:05:58;1.70;99.90
42085;DHT22;27746;52.228;20.890;2023-03-04T05:08:25;1.70;99.90
42085;DHT22;27746;52.228;20.890;2023-03-04T05:10:53;1.70;99.90
42085;DHT22;27746;52.228;20.890;2023-03-04T05:18:15;1.70;99.90
42085;DHT22;27746;52.228;20.890;2023-03-04T05:20:43;1.70;99.90
42085;DHT22;27746;52.228;20.890;2023-03-04T05:23:09;1.70;99.90
42085;DHT22;27746;52.228;20.890;2023-03-04T05:38:02;1.70;99.90
42085;DHT22;27746;52.228;20.890;2023-03-04T05:40:29;1.70;99.90
42085;DHT22;27746;52.228;20.890;2023-03-04T05:42:56;1.70;99.90
42085;DHT22;27746;52.228;20.890;2023-03-04T05:45:23;1.70;99.90
42085;DHT22;27746;52.228;20.890;2023-03-04T05:50:19;1.70;99.90
42085;DHT22;27746;52.228;20.890;2023-03-04T05:57:43;1.70;99.90
42085;DHT22;27746;52.228;20.890;2023-03-04T06:00:12;1.70;99.90
42085;DHT22;27746;52.228;20.890;2023-03-04T06:02:40;1.70;99.90
42085;DHT22;27746;52.228;20.890;2023-03-04T06:05:08;1.70;99.90
42085;DHT22;27746;52.228;20.890;2023-03-04T06:07:35;1.80;99.90
42085;DHT22;27746;52.228;20.890;2023-03-04T06:10:05;1.70;99.90
42085;DHT22;27746;52.228;20.890;2023-03-04T06:14:59;1.80;99.90
42085;DHT22;27746;52.228;20.890;2023-03-04T06:17:27;1.80;99.90
42085;DHT22;27746;52.228;20.890;2023-03-04T06:19:54;1.80;99.90
42085;DHT22;27746;52.228;20.890;2023-03-04T06:22:21;1.80;99.90
42085;DHT22;27746;52.228;20.890;2023-03-04T06:24:48;1.80;99.90
42085;DHT22;27746;52.228;20.890;2023-03-04T06:27:16;1.80;99.90
42085;DHT22;27746;52.228;20.890;2023-03-04T06:29:43;1.80;99.90
42085;DHT22;27746;52.228;20.890;2023-03-04T06:32:09;1.80;99.90
42085;DHT22;27746;52.228;20.890;2023-03-04T06:34:36;1.80;99.90
42085;DHT22;27746;52.228;20.890;2023-03-04T06:37:03;1.90;99.90
42085;DHT22;27746;52.228;20.890;2023-03-04T06:41:57;1.90;99.90
42085;DHT22;27746;52.228;20.890;2023-03-04T06:49:20;1.90;99.90
42085;DHT22;27746;52.228;20.890;2023-03-04T06:54:14;1.90;99.90
42085;DHT22;27746;52.228;20.890;2023-03-04T13:14:40;1.90;99.90
42085;DHT22;27746;52.228;20.890;2023-03-04T13:17:39;5.90;99.90
42085;DHT22;27746;52.228;20.890;2023-03-04T13:20:34;6.10;99.90
42085;DHT22;27746;52.228;20.890;2023-03-04T13:23:03;6.20;99.90
42085;DHT22;27746;52.228;20.890;2023-03-04T13:28:21;6.30;99.90
42085;DHT22;27746;52.228;20.890;2023-03-04T13:31:17;7.60;99.90
42085;DHT22;27746;52.228;20.890;2023-03-04T13:33:56;7.90;99.90
42085;DHT22;27746;52.228;20.890;2023-03-04T13:39:28;7.80;99.90
42085;DHT22;27746;52.228;20.890;2023-03-04T13:41:57;7.30;99.90
42085;DHT22;27746;52.228;20.890;2023-03-04T13:47:44;6.80;99.90
42085;DHT22;27746;52.228;20.890;2023-03-04T14:08:47;5.50;99.90
42085;DHT22;27746;52.228;20.890;2023-03-04T14:11:16;5.50;99.90
42085;DHT22;27746;52.228;20.890;2023-03-04T14:13:45;5.60;99.90
42085;DHT22;27746;52.228;20.890;2023-03-04T14:16:18;6.00;99.90
42085;DHT22;27746;52.228;20.890;2023-03-04T14:18:59;6.40;99.90
42085;DHT22;27746;52.228;20.890;2023-03-04T14:21:27;7.20;98.40
42085;DHT22;27746;52.228;20.890;2023-03-04T14:24:00;7.40;97.20
42085;DHT22;27746;52.228;20.890;2023-03-04T14:26:28;7.30;95.80
42085;DHT22;27746;52.228;20.890;2023-03-04T14:28:56;7.10;95.70
42085;DHT22;27746;52.228;20.890;2023-03-04T14:31:26;6.80;95.40
42085;DHT22;27746;52.228;20.890;2023-03-04T14:33:56;6.60;95.90
42085;DHT22;27746;52.228;20.890;2023-03-04T14:36:28;6.20;95.60
42085;DHT22;27746;52.228;20.890;2023-03-04T14:38:58;5.90;95.80
42085;DHT22;27746;52.228;20.890;2023-03-04T14:41:27;5.60;96.40
42085;DHT22;27746;52.228;20.890;2023-03-04T14:44:02;5.40;96.30
42085;DHT22;27746;52.228;20.890;2023-03-04T14:46:35;5.20;96.20
42085;DHT22;27746;52.228;20.890;2023-03-04T14:49:05;5.10;96.00
42085;DHT22;27746;52.228;20.890;2023-03-04T14:51:40;5.00;96.00
42085;DHT22;27746;52.228;20.890;2023-03-04T14:54:27;4.90;95.60
42085;DHT22;27746;52.228;20.890;2023-03-04T14:56:54;4.90;95.00
42085;DHT22;27746;52.228;20.890;2023-03-04T14:59:29;4.90;95.10
42085;DHT22;27746;52.228;20.890;2023-03-04T15:02:25;4.80;94.40
42085;DHT22;27746;52.228;20.890;2023-03-04T15:04:57;4.80;94.80
42085;DHT22;27746;52.228;20.890;2023-03-04T15:07:29;4.80;94.60
42085;DHT22;27746;52.228;20.890;2023-03-04T15:09:57;4.80;95.00
42085;DHT22;27746;52.228;20.890;2023-03-04T15:12:26;4.80;94.50
42085;DHT22;27746;52.228;20.890;2023-03-04T15:14:55;4.80;95.10
42085;DHT22;27746;52.228;20.890;2023-03-04T15:17:31;4.90;94.20
42085;DHT22;27746;52.228;20.890;2023-03-04T15:20:19;4.80;92.90
42085;DHT22;27746;52.228;20.890;2023-03-04T15:22:59;4.70;91.90
42085;DHT22;27746;52.228;20.890;2023-03-04T15:25:26;4.60;90.70
42085;DHT22;27746;52.228;20.890;2023-03-04T15:27:54;4.60;90.30
42085;DHT22;27746;52.228;20.890;2023-03-04T15:30:22;4.50;89.40
42085;DHT22;27746;52.228;20.890;2023-03-04T15:32:54;4.40;90.00
42085;DHT22;27746;52.228;20.890;2023-03-04T15:35:27;4.40;90.10
42085;DHT22;27746;52.228;20.890;2023-03-04T15:37:54;4.30;85.20
42085;DHT22;27746;52.228;20.890;2023-03-04T15:40:26;4.30;81.50
42085;DHT22;27746;52.228;20.890;2023-03-04T15:42:56;4.30;79.10
42085;DHT22;27746;52.228;20.890;2023-03-04T15:45:26;4.00;80.20
42085;DHT22;27746;52.228;20.890;2023-03-04T15:47:54;4.00;81.00
42085;DHT22;27746;52.228;20.890;2023-03-04T15:50:26;4.00;83.60
42085;DHT22;27746;52.228;20.890;2023-03-04T15:52:57;4.00;82.80
42085;DHT22;27746;52.228;20.890;2023-03-04T15:55:24;3.90;81.30
42085;DHT22;27746;52.228;20.890;2023-03-04T15:57:53;3.80;81.60
42085;DHT22;27746;52.228;20.890;2023-03-04T16:00:21;3.80;80.60
42085;DHT22;27746;52.228;20.890;2023-03-04T16:02:48;3.70;80.20
42085;DHT22;27746;52.228;20.890;2023-03-04T16:05:16;3.60;79.20
42085;DHT22;27746;52.228;20.890;2023-03-04T16:07:47;3.60;79.50
42085;DHT22;27746;52.228;20.890;2023-03-04T16:10:19;3.50;79.70
42085;DHT22;27746;52.228;20.890;2023-03-04T16:12:46;3.40;79.40
42085;DHT22;27746;52.228;20.890;2023-03-04T16:15:16;3.40;79.90
42085;DHT22;27746;52.228;20.890;2023-03-04T16:17:44;3.40;79.80
42085;DHT22;27746;52.228;20.890;2023-03-04T16:20:13;3.20;76.70
42085;DHT22;27746;52.228;20.890;2023-03-04T16:22:42;3.00;76.30
42085;DHT22;27746;52.228;20.890;2023-03-04T16:25:12;2.90;77.20
42085;DHT22;27746;52.228;20.890;2023-03-04T16:27:40;2.80;76.50
42085;DHT22;27746;52.228;20.890;2023-03-04T16:30:11;2.70;75.00
42085;DHT22;27746;52.228;20.890;2023-03-04T16:32:39;2.50;74.20
42085;DHT22;27746;52.228;20.890;2023-03-04T16:35:07;2.40;73.70
42085;DHT22;27746;52.228;20.890;2023-03-04T16:37:34;2.30;73.50
42085;DHT22;27746;52.228;20.890;2023-03-04T16:40:03;2.20;73.30
42085;DHT22;27746;52.228;20.890;2023-03-04T16:42:30;2.20;74.00
42085;DHT22;27746;52.228;20.890;2023-03-04T16:44:57;2.10;73.70
42085;DHT22;27746;52.228;20.890;2023-03-04T16:47:24;2.10;73.70
42085;DHT22;27746;52.228;20.890;2023-03-04T16:49:52;2.10;73.70
42085;DHT22;27746;52.228;20.890;2023-03-04T16:52:23;2.00;72.70
42085;DHT22;27746;52.228;20.890;2023-03-04T16:54:51;1.90;72.30
42085;DHT22;27746;52.228;20.890;2023-03-04T16:57:19;1.90;73.10
42085;DHT22;27746;52.228;20.890;2023-03-04T16:59:46;1.80;73.20
42085;DHT22;27746;52.228;20.890;2023-03-04T17:02:14;1.80;73.10
42085;DHT22;27746;52.228;20.890;2023-03-04T17:04:41;1.90;76.60
42085;DHT22;27746;52.228;20.890;2023-03-04T17:07:09;1.90;76.20
42085;DHT22;27746;52.228;20.890;2023-03-04T17:09:36;1.90;75.50
42085;DHT22;27746;52.228;20.890;2023-03-04T17:12:04;2.00;75.30
42085;DHT22;27746;52.228;20.890;2023-03-04T17:14:32;2.00;74.00
42085;DHT22;27746;52.228;20.890;2023-03-04T17:17:00;2.10;74.60
42085;DHT22;27746;52.228;20.890;2023-03-04T17:19:28;2.10;75.10
42085;DHT22;27746;52.228;20.890;2023-03-04T17:21:55;2.20;74.20
42085;DHT22;27746;52.228;20.890;2023-03-04T17:24:22;2.30;72.80
42085;DHT22;27746;52.228;20.890;2023-03-04T17:26:49;2.20;73.20
42085;DHT22;27746;52.228;20.890;2023-03-04T17:29:16;2.20;72.30
42085;DHT22;27746;52.228;20.890;2023-03-04T17:31:44;2.30;72.20
42085;DHT22;27746;52.228;20.890;2023-03-04T17:34:11;2.20;71.80
42085;DHT22;27746;52.228;20.890;2023-03-04T17:36:39;2.30;72.70
42085;DHT22;27746;52.228;20.890;2023-03-04T17:39:06;2.40;72.90
42085;DHT22;27746;52.228;20.890;2023-03-04T17:41:33;2.30;71.80
42085;DHT22;27746;52.228;20.890;2023-03-04T17:44:00;2.40;72.50
42085;DHT22;27746;52.228;20.890;2023-03-04T17:46:29;2.30;71.00
42085;DHT22;27746;52.228;20.890;2023-03-04T17:48:58;2.20;70.40
42085;DHT22;27746;52.228;20.890;2023-03-04T17:51:30;2.00;71.60
42085;DHT22;27746;52.228;20.890;2023-03-04T17:53:57;1.90;72.30
42085;DHT22;27746;52.228;20.890;2023-03-04T17:56:26;1.90;71.90
42085;DHT22;27746;52.228;20.890;2023-03-04T17:58:55;1.80;71.60
42085;DHT22;27746;52.228;20.890;2023-03-04T18:01:22;1.80;71.90
42085;DHT22;27746;52.228;20.890;2023-03-04T18:03:50;1.70;71.80
42085;DHT22;27746;52.228;20.890;2023-03-04T18:06:18;1.60;72.70
42085;DHT22;27746;52.228;20.890;2023-03-04T18:08:47;1.50;73.10
42085;DHT22;27746;52.228;20.890;2023-03-04T18:11:14;1.50;72.30
42085;DHT22;27746;52.228;20.890;2023-03-04T18:13:42;1.50;71.90
42085;DHT22;27746;52.228;20.890;2023-03-04T18:16:09;1.50;72.10
42085;DHT22;27746;52.228;20.890;2023-03-04T18:18:39;1.40;71.90
42085;DHT22;27746;52.228;20.890;2023-03-04T18:21:06;1.40;71.40
42085;DHT22;27746;52.228;20.890;2023-03-04T18:23:34;1.30;72.20
42085;DHT22;27746;52.228;20.890;2023-03-04T18:26:01;1.30;72.00
42085;DHT22;27746;52.228;20.890;2023-03-04T18:28:29;1.30;72.60
42085;DHT22;27746;52.228;20.890;2023-03-04T18:30:56;1.20;72.90
42085;DHT22;27746;52.228;20.890;2023-03-04T18:33:23;1.20;71.90
42085;DHT22;27746;52.228;20.890;2023-03-04T18:35:56;1.10;71.50
42085;DHT22;27746;52.228;20.890;2023-03-04T18:38:23;1.10;71.70
42085;DHT22;27746;52.228;20.890;2023-03-04T18:40:57;1.10;71.20
42085;DHT22;27746;52.228;20.890;2023-03-04T18:43:24;1.00;71.60
42085;DHT22;27746;52.228;20.890;2023-03-04T18:45:59;1.00;71.90
42085;DHT22;27746;52.228;20.890;2023-03-04T18:48:30;1.00;70.80
42085;DHT22;27746;52.228;20.890;2023-03-04T18:50:57;1.00;71.20
42085;DHT22;27746;52.228;20.890;2023-03-04T18:53:26;0.90;71.20
42085;DHT22;27746;52.228;20.890;2023-03-04T18:55:57;0.80;71.50
42085;DHT22;27746;52.228;20.890;2023-03-04T18:58:28;0.80;71.50
42085;DHT22;27746;52.228;20.890;2023-03-04T19:00:56;0.70;72.00
42085;DHT22;27746;52.228;20.890;2023-03-04T19:03:24;0.70;72.50
42085;DHT22;27746;52.228;20.890;2023-03-04T19:05:51;0.60;72.10
42085;DHT22;27746;52.228;20.890;2023-03-04T19:08:19;0.50;72.80
42085;DHT22;27746;52.228;20.890;2023-03-04T19:10:46;0.50;72.80
42085;DHT22;27746;52.228;20.890;2023-03-04T19:13:15;0.50;72.60
42085;DHT22;27746;52.228;20.890;2023-03-04T19:15:43;0.40;73.80
42085;DHT22;27746;52.228;20.890;2023-03-04T19:18:10;0.50;73.70
42085;DHT22;27746;52.228;20.890;2023-03-04T19:20:39;0.50;73.40
42085;DHT22;27746;52.228;20.890;2023-03-04T19:23:06;0.50;72.90
42085;DHT22;27746;52.228;20.890;2023-03-04T19:25:35;0.40;72.70
42085;DHT22;27746;52.228;20.890;2023-03-04T19:28:03;0.40;72.70
42085;DHT22;27746;52.228;20.890;2023-03-04T19:30:32;0.40;72.00
42085;DHT22;27746;52.228;20.890;2023-03-04T19:32:59;0.40;72.30
42085;DHT22;27746;52.228;20.890;2023-03-04T19:35:27;0.40;72.90
42085;DHT22;27746;52.228;20.890;2023-03-04T19:37:56;0.40;73.80
42085;DHT22;27746;52.228;20.890;2023-03-04T19:40:23;0.40;74.20
42085;DHT22;27746;52.228;20.890;2023-03-04T19:42:52;0.40;74.70
42085;DHT22;27746;52.228;20.890;2023-03-04T19:45:19;0.40;75.40
42085;DHT22;27746;52.228;20.890;2023-03-04T19:47:48;0.40;76.10
42085;DHT22;27746;52.228;20.890;2023-03-04T19:50:15;0.30;76.00
42085;DHT22;27746;52.228;20.890;2023-03-04T19:52:42;0.30;76.10
42085;DHT22;27746;52.228;20.890;2023-03-04T19:55:10;0.30;76.70
42085;DHT22;27746;52.228;20.890;2023-03-04T19:57:38;0.20;76.70
42085;DHT22;27746;52.228;20.890;2023-03-04T20:00:08;0.20;77.10
42085;DHT22;27746;52.228;20.890;2023-03-04T20:02:35;0.10;77.50
42085;DHT22;27746;52.228;20.890;2023-03-04T20:05:04;0.10;78.30
42085;DHT22;27746;52.228;20.890;2023-03-04T20:07:31;0.00;78.30
42085;DHT22;27746;52.228;20.890;2023-03-04T20:09:58;0.00;79.00
42085;DHT22;27746;52.228;20.890;2023-03-04T20:12:25;-0.10;79.10
42085;DHT22;27746;52.228;20.890;2023-03-04T20:14:52;-0.10;80.00
42085;DHT22;27746;52.228;20.890;2023-03-04T20:17:19;-0.10;80.40
42085;DHT22;27746;52.228;20.890;2023-03-04T20:19:46;-0.20;80.80
42085;DHT22;27746;52.228;20.890;2023-03-04T20:22:15;-0.20;81.30
42085;DHT22;27746;52.228;20.890;2023-03-04T20:24:42;-0.30;81.40
42085;DHT22;27746;52.228;20.890;2023-03-04T20:27:12;-0.30;81.50
42085;DHT22;27746;52.228;20.890;2023-03-04T20:29:39;-0.30;81.80
42085;DHT22;27746;52.228;20.890;2023-03-04T20:32:06;-0.40;82.70
42085;DHT22;27746;52.228;20.890;2023-03-04T20:34:33;-0.50;82.20
42085;DHT22;27746;52.228;20.890;2023-03-04T20:37:01;-0.50;82.40
42085;DHT22;27746;52.228;20.890;2023-03-04T20:39:29;-0.50;82.60
42085;DHT22;27746;52.228;20.890;2023-03-04T20:41:57;-0.60;83.00
42085;DHT22;27746;52.228;20.890;2023-03-04T20:44:24;-0.60;83.90
42085;DHT22;27746;52.228;20.890;2023-03-04T20:46:51;-0.60;84.30
42085;DHT22;27746;52.228;20.890;2023-03-04T20:49:19;-0.70;84.30
42085;DHT22;27746;52.228;20.890;2023-03-04T20:51:48;-0.70;84.20
42085;DHT22;27746;52.228;20.890;2023-03-04T20:54:15;-0.80;83.90
42085;DHT22;27746;52.228;20.890;2023-03-04T20:56:44;-0.80;83.90
42085;DHT22;27746;52.228;20.890;2023-03-04T20:59:11;-0.80;83.70
42085;DHT22;27746;52.228;20.890;2023-03-04T21:01:41;-0.80;83.60
42085;DHT22;27746;52.228;20.890;2023-03-04T21:04:12;-0.80;83.60
42085;DHT22;27746;52.228;20.890;2023-03-04T21:06:39;-0.90;83.30
42085;DHT22;27746;52.228;20.890;2023-03-04T21:09:08;-0.90;83.50
42085;DHT22;27746;52.228;20.890;2023-03-04T21:11:35;-1.00;84.10
42085;DHT22;27746;52.228;20.890;2023-03-04T21:14:11;-1.00;84.60
42085;DHT22;27746;52.228;20.890;2023-03-04T21:16:39;-1.00;83.90
42085;DHT22;27746;52.228;20.890;2023-03-04T21:19:08;-1.00;83.80
42085;DHT22;27746;52.228;20.890;2023-03-04T21:21:38;-1.10;84.60
42085;DHT22;27746;52.228;20.890;2023-03-04T21:24:05;-1.10;84.20
42085;DHT22;27746;52.228;20.890;2023-03-04T21:26:32;-1.10;84.50
42085;DHT22;27746;52.228;20.890;2023-03-04T21:28:59;-1.10;84.80
42085;DHT22;27746;52.228;20.890;2023-03-04T21:31:28;-1.10;85.00
42085;DHT22;27746;52.228;20.890;2023-03-04T21:33:56;-1.10;84.70
42085;DHT22;27746;52.228;20.890;2023-03-04T21:36:24;-1.10;84.20
42085;DHT22;27746;52.228;20.890;2023-03-04T21:38:52;-1.20;84.10
42085;DHT22;27746;52.228;20.890;2023-03-04T21:41:21;-1.20;84.20
42085;DHT22;27746;52.228;20.890;2023-03-04T21:43:49;-1.20;84.40
42085;DHT22;27746;52.228;20.890;2023-03-04T21:46:16;-1.20;84.30
42085;DHT22;27746;52.228;20.890;2023-03-04T21:48:45;-1.20;84.60
42085;DHT22;27746;52.228;20.890;2023-03-04T21:51:14;-1.30;84.10
42085;DHT22;27746;52.228;20.890;2023-03-04T21:53:42;-1.30;83.50
42085;DHT22;27746;52.228;20.890;2023-03-04T21:56:10;-1.30;83.80
42085;DHT22;27746;52.228;20.890;2023-03-04T21:58:37;-1.30;84.30
42085;DHT22;27746;52.228;20.890;2023-03-04T22:01:10;-1.30;84.10
42085;DHT22;27746;52.228;20.890;2023-03-04T22:03:38;-1.30;84.90
42085;DHT22;27746;52.228;20.890;2023-03-04T22:06:08;-1.40;85.00
42085;DHT22;27746;52.228;20.890;2023-03-04T22:08:36;-1.40;85.50
42085;DHT22;27746;52.228;20.890;2023-03-04T22:11:05;-1.40;86.00
42085;DHT22;27746;52.228;20.890;2023-03-04T22:13:32;-1.40;85.80
42085;DHT22;27746;52.228;20.890;2023-03-04T22:16:00;-1.40;86.30
42085;DHT22;27746;52.228;20.890;2023-03-04T22:18:27;-1.50;86.50
42085;DHT22;27746;52.228;20.890;2023-03-04T22:20:59;-1.50;86.90
42085;DHT22;27746;52.228;20.890;2023-03-04T22:23:28;-1.50;87.30
42085;DHT22;27746;52.228;20.890;2023-03-04T22:25:54;-1.50;87.20
42085;DHT22;27746;52.228;20.890;2023-03-04T22:28:24;-1.50;87.30
42085;DHT22;27746;52.228;20.890;2023-03-04T22:30:53;-1.40;87.40
42085;DHT22;27746;52.228;20.890;2023-03-04T22:33:20;-1.50;87.70
42085;DHT22;27746;52.228;20.890;2023-03-04T22:35:47;-1.50;87.60
42085;DHT22;27746;52.228;20.890;2023-03-04T22:38:14;-1.50;87.80
42085;DHT22;27746;52.228;20.890;2023-03-04T22:40:42;-1.50;88.00
42085;DHT22;27746;52.228;20.890;2023-03-04T22:43:09;-1.50;88.10
42085;DHT22;27746;52.228;20.890;2023-03-04T22:45:36;-1.50;88.70
42085;DHT22;27746;52.228;20.890;2023-03-04T22:48:03;-1.50;87.80
42085;DHT22;27746;52.228;20.890;2023-03-04T22:50:30;-1.50;88.20
42085;DHT22;27746;52.228;20.890;2023-03-04T22:52:57;-1.50;87.90
42085;DHT22;27746;52.228;20.890;2023-03-04T22:55:24;-1.50;87.20
42085;DHT22;27746;52.228;20.890;2023-03-04T22:57:53;-1.50;86.90
42085;DHT22;27746;52.228;20.890;2023-03-04T23:00:21;-1.50;86.90
42085;DHT22;27746;52.228;20.890;2023-03-04T23:02:49;-1.60;87.70
42085;DHT22;27746;52.228;20.890;2023-03-04T23:05:16;-1.60;88.60
42085;DHT22;27746;52.228;20.890;2023-03-04T23:07:46;-1.50;89.60
42085;DHT22;27746;52.228;20.890;2023-03-04T23:10:16;-1.60;90.10
42085;DHT22;27746;52.228;20.890;2023-03-04T23:12:44;-1.60;90.30
42085;DHT22;27746;52.228;20.890;2023-03-04T23:15:13;-1.60;90.60
42085;DHT22;27746;52.228;20.890;2023-03-04T23:17:40;-1.60;90.70
42085;DHT22;27746;52.228;20.890;2023-03-04T23:20:10;-1.70;90.80
42085;DHT22;27746;52.228;20.890;2023-03-04T23:22:37;-1.70;90.90
42085;DHT22;27746;52.228;20.890;2023-03-04T23:25:05;-1.70;90.90
42085;DHT22;27746;52.228;20.890;2023-03-04T23:27:32;-1.70;91.10
42085;DHT22;27746;52.228;20.890;2023-03-04T23:29:59;-1.70;91.00
42085;DHT22;27746;52.228;20.890;2023-03-04T23:32:27;-1.80;90.80
42085;DHT22;27746;52.228;20.890;2023-03-04T23:34:54;-1.80;90.60
42085;DHT22;27746;52.228;20.890;2023-03-04T23:37:22;-1.80;90.40
42085;DHT22;27746;52.228;20.890;2023-03-04T23:39:49;-1.80;90.10
42085;DHT22;27746;52.228;20.890;2023-03-04T23:42:15;-1.80;90.10
42085;DHT22;27746;52.228;20.890;2023-03-04T23:44:42;-1.80;90.50
42085;DHT22;27746;52.228;20.890;2023-03-04T23:47:09;-1.80;90.20
42085;DHT22;27746;52.228;20.890;2023-03-04T23:49:38;-1.80;90.10
42085;DHT22;27746;52.228;20.890;2023-03-04T23:52:05;-1.80;90.30
42085;DHT22;27746;52.228;20.890;2023-03-04T23:54:32;-1.80;90.20
42085;DHT22;27746;52.228;20.890;2023-03-04T23:57:00;-1.80;90.30
42085;DHT22;27746;52.228;20.890;2023-03-04T23:59:27;-1.90;90.30
